createdAt,value
2023-03-27T00:02:03.669Z,0.90
2023-03-27T00:04:30.133Z,1.00
2023-03-27T00:06:56.993Z,1.00
2023-03-27T00:09:23.399Z,1.00
2023-03-27T00:11:49.819Z,1.00
2023-03-27T00:14:16.331Z,1.10
2023-03-27T00:16:42.844Z,1.17
2023-03-27T00:19:09.720Z,1.00
2023-03-27T00:21:36.219Z,1.00
2023-03-27T00:24:02.682Z,1.10
2023-03-27T00:26:30.584Z,1.00
2023-03-27T00:28:57.153Z,1.00
2023-03-27T00:31:23.765Z,1.10
2023-03-27T00:33:51.310Z,1.00
2023-03-27T00:36:17.778Z,1.10
2023-03-27T00:38:45.689Z,1.00
2023-03-27T00:41:12.682Z,1.10
2023-03-27T00:43:43.765Z,1.10
2023-03-27T00:46:44.704Z,1.20
2023-03-27T00:49:13.563Z,1.00
2023-03-27T00:51:42.458Z,1.10
2023-03-27T00:54:10.786Z,1.10
2023-03-27T00:56:38.584Z,1.10
2023-03-27T00:59:12.415Z,1.10
2023-03-27T01:01:40.144Z,1.10
2023-03-27T01:04:09.064Z,1.10
2023-03-27T01:06:38.455Z,1.10
2023-03-27T01:09:05.481Z,1.10
2023-03-27T01:11:56.771Z,1.10
2023-03-27T01:14:37.572Z,1.10
2023-03-27T01:17:22.087Z,1.10
2023-03-27T01:20:07.215Z,1.10
2023-03-27T01:23:08.320Z,1.10
2023-03-27T01:25:40.550Z,1.20
2023-03-27T01:28:28.978Z,1.10
2023-03-27T01:31:14.154Z,1.20
2023-03-27T01:34:08.274Z,1.10
2023-03-27T01:37:09.933Z,1.10
2023-03-27T01:40:00.062Z,1.20
2023-03-27T01:42:32.661Z,1.20
2023-03-27T01:45:23.011Z,1.20
2023-03-27T01:48:12.619Z,1.13
2023-03-27T01:50:46.384Z,1.20
2023-03-27T01:53:22.742Z,1.20
2023-03-27T01:55:58.304Z,1.20
2023-03-27T01:58:30.605Z,1.20
2023-03-27T02:01:01.394Z,1.27
2023-03-27T02:03:33.865Z,1.20
2023-03-27T02:06:07.601Z,1.20
2023-03-27T02:08:46.856Z,1.20
2023-03-27T02:11:13.893Z,1.20
2023-03-27T02:14:09.694Z,1.20
2023-03-27T02:16:42.621Z,1.20
2023-03-27T02:19:20.289Z,1.30
2023-03-27T02:21:49.600Z,1.30
2023-03-27T02:24:19.597Z,1.30
2023-03-27T02:26:54.405Z,1.20
2023-03-27T02:29:23.863Z,1.30
2023-03-27T02:32:14.022Z,1.20
2023-03-27T02:34:58.945Z,1.30
2023-03-27T02:37:34.678Z,1.20
2023-03-27T02:40:12.044Z,1.30
2023-03-27T02:43:12.283Z,1.30
2023-03-27T02:45:38.654Z,1.30
2023-03-27T02:48:13.623Z,1.20
2023-03-27T02:51:01.118Z,1.30
2023-03-27T02:53:30.497Z,1.20
2023-03-27T02:55:59.967Z,1.30
2023-03-27T02:58:34.510Z,1.30
2023-03-27T03:01:04.591Z,1.30
2023-03-27T03:03:38.878Z,1.20
2023-03-27T03:06:06.957Z,1.30
2023-03-27T03:08:38.183Z,1.30
2023-03-27T03:11:07.997Z,1.20
2023-03-27T03:13:34.488Z,1.93
2023-03-27T03:16:01.135Z,1.30
2023-03-27T03:18:27.554Z,1.63
2023-03-27T03:20:55.079Z,1.30
2023-03-27T03:23:23.093Z,1.40
2023-03-27T03:25:56.574Z,1.40
2023-03-27T03:28:25.960Z,1.30
2023-03-27T03:30:53.796Z,1.30
2023-03-27T03:33:21.120Z,1.30
2023-03-27T03:35:49.450Z,1.40
2023-03-27T03:38:25.948Z,1.40
2023-03-27T03:40:57.278Z,1.40
2023-03-27T03:43:26.504Z,1.30
2023-03-27T03:45:54.079Z,1.40
2023-03-27T03:48:22.080Z,1.30
2023-03-27T03:50:52.074Z,1.30
2023-03-27T03:53:20.649Z,1.30
2023-03-27T03:55:50.531Z,1.30
2023-03-27T03:58:17.127Z,1.30
2023-03-27T04:00:43.593Z,1.30
2023-03-27T04:03:10.413Z,1.30
2023-03-27T04:05:37.536Z,1.30
2023-03-27T04:08:08.801Z,1.50
2023-03-27T04:10:39.169Z,1.30
2023-03-27T04:13:06.485Z,1.30
2023-03-27T04:15:33.299Z,1.30
2023-03-27T04:18:00.937Z,1.30
2023-03-27T04:20:27.541Z,1.40
2023-03-27T04:22:54.878Z,1.30
2023-03-27T04:25:23.705Z,1.40
2023-03-27T04:27:53.729Z,1.50
2023-03-27T04:30:24.644Z,1.40
2023-03-27T04:32:52.587Z,1.40
2023-03-27T04:35:20.214Z,1.50
2023-03-27T04:37:47.934Z,1.57
2023-03-27T04:40:17.922Z,1.40
2023-03-27T04:42:45.069Z,1.40
2023-03-27T04:45:14.572Z,1.40
2023-03-27T04:47:41.128Z,1.40
2023-03-27T04:50:09.264Z,1.40
2023-03-27T04:52:35.877Z,1.30
2023-03-27T04:55:03.118Z,1.50
2023-03-27T04:57:31.956Z,1.40
2023-03-27T04:59:59.552Z,1.40
2023-03-27T05:02:26.911Z,1.47
2023-03-27T05:04:58.276Z,1.47
2023-03-27T05:07:26.484Z,1.40
2023-03-27T05:09:53.290Z,1.30
2023-03-27T05:12:21.329Z,1.40
2023-03-27T05:14:48.587Z,2.27
2023-03-27T05:17:16.701Z,1.30
2023-03-27T05:19:43.558Z,1.37
2023-03-27T05:22:10.223Z,1.50
2023-03-27T05:24:36.637Z,1.40
2023-03-27T05:27:03.451Z,1.40
2023-03-27T05:29:30.179Z,1.50
2023-03-27T05:32:13.496Z,1.40
2023-03-27T05:34:39.909Z,1.63
2023-03-27T05:37:06.331Z,1.40
2023-03-27T05:39:32.821Z,1.40
2023-03-27T05:41:59.244Z,1.40
2023-03-27T05:44:26.576Z,1.33
2023-03-27T05:46:53.034Z,1.43
2023-03-27T05:49:20.182Z,1.40
2023-03-27T05:51:46.602Z,1.40
2023-03-27T05:54:13.874Z,1.40
2023-03-27T05:56:40.518Z,1.37
2023-03-27T05:59:06.990Z,1.40
2023-03-27T06:01:35.932Z,1.37
2023-03-27T06:04:04.305Z,1.50
2023-03-27T06:06:32.809Z,1.30
2023-03-27T06:08:59.418Z,1.37
2023-03-27T06:11:26.093Z,1.30
2023-03-27T06:13:52.618Z,1.30
2023-03-27T06:16:22.093Z,1.20
2023-03-27T06:18:49.081Z,1.20
2023-03-27T06:21:16.072Z,1.20
2023-03-27T06:23:42.685Z,1.30
2023-03-27T06:26:09.376Z,1.30
2023-03-27T06:28:35.856Z,1.20
2023-03-27T06:31:02.390Z,1.30
2023-03-27T06:33:29.714Z,1.30
2023-03-27T06:36:00.547Z,1.20
2023-03-27T06:38:31.136Z,1.30
2023-03-27T06:40:59.563Z,1.30
2023-03-27T06:43:26.291Z,1.30
2023-03-27T06:45:53.063Z,1.20
2023-03-27T06:48:22.414Z,1.20
2023-03-27T06:50:51.622Z,1.30
2023-03-27T06:53:27.434Z,1.30
2023-03-27T06:55:56.240Z,1.10
2023-03-27T06:58:23.407Z,1.10
2023-03-27T07:00:50.464Z,1.10
2023-03-27T07:03:18.462Z,1.10
2023-03-27T07:05:54.312Z,1.00
2023-03-27T07:08:24.820Z,1.10
2023-03-27T07:13:24.617Z,1.10
2023-03-27T07:17:02.533Z,1.10
2023-03-27T07:19:28.974Z,1.00
2023-03-27T07:21:55.400Z,1.00
2023-03-27T07:24:21.952Z,1.00
2023-03-27T07:26:48.349Z,1.10
2023-03-27T07:29:14.753Z,1.00
2023-03-27T07:31:55.576Z,0.90
2023-03-27T07:34:23.349Z,0.83
2023-03-27T07:36:50.416Z,0.90
2023-03-27T07:39:17.063Z,0.80
2023-03-27T07:41:56.001Z,0.80
2023-03-27T07:44:22.420Z,0.77
2023-03-27T07:46:52.043Z,0.70
2023-03-27T07:49:19.112Z,0.83
2023-03-27T07:51:46.355Z,0.80
2023-03-27T07:54:13.380Z,0.80
2023-03-27T07:56:40.818Z,0.90
2023-03-27T07:59:07.453Z,1.00
2023-03-27T08:01:34.203Z,0.93
2023-03-27T08:04:00.746Z,0.90
2023-03-27T08:06:27.507Z,0.93
2023-03-27T08:08:53.899Z,0.90
2023-03-27T08:11:30.219Z,1.00
2023-03-27T08:13:58.496Z,1.00
2023-03-27T08:16:28.880Z,0.93
2023-03-27T08:18:55.835Z,1.00
2023-03-27T08:21:23.224Z,0.90
2023-03-27T08:23:50.213Z,1.00
2023-03-27T08:26:16.699Z,1.00
2023-03-27T08:28:43.096Z,1.00
2023-03-27T08:31:15.618Z,0.90
2023-03-27T08:33:42.661Z,0.90
2023-03-27T08:36:11.494Z,0.90
2023-03-27T08:38:39.337Z,0.70
2023-03-27T08:41:07.646Z,0.77
2023-03-27T08:43:39.190Z,0.70
2023-03-27T08:46:08.037Z,0.60
2023-03-27T08:48:43.912Z,0.60
2023-03-27T08:51:17.999Z,0.60
2023-03-27T08:54:04.225Z,0.80
2023-03-27T08:56:30.701Z,0.80
2023-03-27T08:58:57.368Z,0.83
2023-03-27T09:01:38.408Z,0.80
2023-03-27T09:04:21.775Z,0.80
2023-03-27T09:06:56.520Z,0.80
2023-03-27T09:09:38.755Z,0.93
2023-03-27T09:12:34.235Z,0.80
2023-03-27T09:15:14.225Z,0.90
2023-03-27T09:18:03.667Z,0.90
2023-03-27T09:21:10.366Z,0.80
2023-03-27T09:23:44.697Z,0.90
2023-03-27T09:26:22.430Z,0.80
2023-03-27T09:28:56.247Z,0.80
2023-03-27T09:31:26.407Z,0.80
2023-03-27T09:33:54.129Z,0.80
2023-03-27T09:36:21.769Z,0.90
2023-03-27T09:38:53.901Z,0.80
2023-03-27T09:41:38.954Z,0.80
2023-03-27T09:44:53.213Z,0.83
2023-03-27T09:47:36.358Z,0.90
2023-03-27T09:50:18.646Z,0.80
2023-03-27T09:52:45.103Z,0.80
2023-03-27T09:55:26.240Z,0.90
2023-03-27T09:58:01.197Z,0.90
2023-03-27T10:00:33.954Z,0.90
2023-03-27T10:03:06.005Z,0.90
2023-03-27T10:05:32.764Z,0.80
2023-03-27T10:07:59.738Z,0.93
2023-03-27T10:10:31.824Z,0.90
2023-03-27T10:13:00.740Z,0.90
2023-03-27T10:15:38.845Z,0.80
2023-03-27T10:18:23.388Z,0.80
2023-03-27T10:20:56.626Z,0.97
2023-03-27T10:23:41.232Z,0.80
2023-03-27T10:26:12.256Z,0.90
2023-03-27T10:28:40.754Z,0.80
2023-03-27T10:31:24.669Z,0.90
2023-03-27T10:33:51.450Z,1.00
2023-03-27T10:36:18.757Z,0.93
2023-03-27T10:39:00.822Z,0.90
2023-03-27T10:41:29.301Z,1.00
2023-03-27T10:43:56.901Z,1.00
2023-03-27T10:46:26.932Z,1.00
2023-03-27T10:49:08.636Z,1.00
2023-03-27T10:51:46.865Z,1.00
2023-03-27T10:54:19.341Z,1.10
2023-03-27T10:56:57.030Z,1.20
2023-03-27T10:59:41.832Z,1.10
2023-03-27T11:02:41.867Z,1.20
2023-03-27T11:05:14.005Z,1.13
2023-03-27T11:07:53.125Z,1.10
2023-03-27T11:10:36.710Z,1.20
2023-03-27T11:13:14.601Z,1.20
2023-03-27T11:15:50.874Z,1.30
2023-03-27T11:18:52.824Z,1.10
2023-03-27T11:21:26.638Z,1.20
2023-03-27T11:23:57.448Z,1.00
2023-03-27T11:26:29.686Z,1.10
2023-03-27T11:29:04.088Z,1.10
2023-03-27T11:31:34.335Z,1.00
2023-03-27T11:34:07.706Z,1.10
2023-03-27T11:36:45.005Z,1.03
2023-03-27T11:39:48.303Z,1.00
2023-03-27T11:42:26.436Z,1.00
2023-03-27T11:44:53.366Z,1.00
2023-03-27T11:47:41.325Z,1.00
2023-03-27T11:50:31.041Z,1.03
2023-03-27T11:53:16.282Z,1.10
2023-03-27T11:56:26.778Z,1.20
2023-03-27T11:59:14.335Z,1.20
2023-03-27T12:01:58.610Z,1.20
2023-03-27T12:04:28.225Z,1.20
2023-03-27T12:07:06.860Z,1.10
2023-03-27T12:09:41.551Z,1.30
2023-03-27T12:12:42.125Z,1.20
2023-03-27T12:15:33.906Z,1.20
2023-03-27T12:18:18.928Z,1.20
2023-03-27T12:20:58.994Z,1.20
2023-03-27T12:23:43.401Z,1.20
2023-03-27T12:26:31.682Z,1.20
2023-03-27T12:29:23.758Z,1.10
2023-03-27T12:31:53.671Z,1.20
2023-03-27T12:34:50.175Z,1.20
2023-03-27T12:37:19.829Z,1.13
2023-03-27T12:39:53.973Z,1.17
2023-03-27T12:42:49.379Z,1.10
2023-03-27T12:45:26.953Z,1.10
2023-03-27T12:48:11.576Z,1.10
2023-03-27T12:50:44.175Z,1.00
2023-03-27T12:53:26.062Z,1.00
2023-03-27T12:56:12.255Z,1.00
2023-03-27T12:58:40.025Z,1.00
2023-03-27T13:01:10.839Z,1.10
2023-03-27T13:04:08.245Z,1.00
2023-03-27T13:06:37.345Z,1.00
2023-03-27T13:09:16.697Z,1.00
2023-03-27T13:11:54.542Z,0.97
2023-03-27T13:14:21.461Z,1.00
2023-03-27T13:17:14.800Z,1.00
2023-03-27T13:20:07.980Z,1.00
2023-03-27T13:22:52.469Z,1.20
2023-03-27T13:25:21.864Z,1.20
2023-03-27T13:31:48.975Z,3.13
2023-03-27T13:34:27.987Z,1.20
2023-03-27T13:37:06.224Z,1.30
2023-03-27T13:39:45.902Z,1.20
2023-03-27T13:42:19.554Z,1.30
2023-03-27T13:44:54.798Z,1.30
2023-03-27T13:47:45.723Z,1.30
2023-03-27T13:50:24.054Z,1.30
2023-03-27T13:53:15.449Z,1.30
2023-03-27T13:56:11.453Z,1.30
2023-03-27T13:59:12.050Z,1.40
2023-03-27T14:01:47.772Z,1.40
2023-03-27T14:04:53.201Z,1.77
2023-03-27T14:07:38.389Z,1.30
2023-03-27T14:10:13.810Z,1.40
2023-03-27T14:12:59.231Z,1.33
2023-03-27T14:15:43.985Z,1.30
2023-03-27T14:18:47.972Z,1.37
2023-03-27T14:21:35.573Z,1.30
2023-03-27T14:24:25.548Z,1.30
2023-03-27T14:26:53.724Z,1.30
2023-03-27T14:29:21.234Z,1.23
2023-03-27T14:31:49.190Z,1.10
2023-03-27T14:34:24.679Z,1.40
2023-03-27T14:36:52.239Z,1.20
2023-03-27T14:39:22.138Z,1.20
2023-03-27T14:41:51.928Z,1.10
2023-03-27T14:44:19.678Z,1.27
2023-03-27T14:46:48.247Z,1.10
2023-03-27T14:49:19.370Z,1.10
2023-03-27T14:51:48.412Z,1.10
2023-03-27T14:54:26.637Z,1.20
2023-03-27T14:56:57.051Z,1.10
2023-03-27T14:59:26.647Z,1.20
2023-03-27T15:01:56.741Z,1.20
2023-03-27T15:04:24.826Z,1.20
2023-03-27T15:06:55.840Z,1.30
2023-03-27T15:09:23.407Z,1.10
2023-03-27T15:11:55.260Z,1.20
2023-03-27T15:14:27.954Z,1.20
2023-03-27T15:17:02.883Z,1.20
2023-03-27T15:19:45.465Z,1.10
2023-03-27T15:22:27.626Z,1.10
2023-03-27T15:24:57.507Z,1.10
2023-03-27T15:27:38.161Z,1.10
2023-03-27T15:30:08.876Z,1.17
2023-03-27T15:32:42.863Z,1.10
2023-03-27T15:35:16.506Z,1.20
2023-03-27T15:37:43.652Z,1.10
2023-03-27T15:40:13.199Z,1.07
2023-03-27T15:42:49.118Z,1.10
2023-03-27T15:45:18.845Z,1.13
2023-03-27T15:47:59.766Z,1.10
2023-03-27T15:50:28.007Z,1.10
2023-03-27T15:52:58.807Z,1.20
2023-03-27T15:55:37.356Z,1.20
2023-03-27T15:58:27.277Z,1.20
2023-03-27T16:00:59.736Z,1.10
2023-03-27T16:03:27.521Z,1.20
2023-03-27T16:05:57.023Z,1.20
2023-03-27T16:08:28.616Z,1.10
2023-03-27T16:10:55.741Z,1.10
2023-03-27T16:13:28.346Z,1.10
2023-03-27T16:16:01.575Z,1.20
2023-03-27T16:18:35.211Z,1.10
2023-03-27T16:21:13.388Z,1.10
2023-03-27T16:23:40.803Z,1.10
2023-03-27T16:26:12.995Z,1.20
2023-03-27T16:28:40.587Z,1.20
2023-03-27T16:31:15.923Z,1.20
2023-03-27T16:33:43.254Z,1.20
2023-03-27T16:36:12.230Z,1.30
2023-03-27T16:38:40.760Z,1.20
2023-03-27T16:41:13.894Z,1.20
2023-03-27T16:43:40.847Z,1.10
2023-03-27T16:46:15.899Z,1.20
2023-03-27T16:48:42.431Z,1.30
2023-03-27T16:51:08.819Z,1.20
2023-03-27T16:53:36.321Z,1.20
2023-03-27T16:56:02.722Z,1.20
2023-03-27T16:58:29.144Z,1.27
2023-03-27T17:00:55.692Z,1.20
2023-03-27T17:03:22.152Z,1.20
2023-03-27T17:05:48.654Z,1.20
2023-03-27T17:08:16.792Z,1.20
2023-03-27T17:10:43.707Z,1.30
2023-03-27T17:13:10.189Z,1.30
2023-03-27T17:15:37.906Z,1.20
2023-03-27T17:18:05.984Z,1.10
2023-03-27T17:20:32.575Z,1.20
2023-03-27T17:22:58.990Z,1.30
2023-03-27T17:25:25.427Z,1.20
2023-03-27T17:27:51.854Z,1.20
2023-03-27T17:30:30.530Z,1.20
2023-03-27T17:33:05.061Z,1.20
2023-03-27T17:35:31.985Z,1.20
2023-03-27T17:37:58.481Z,1.20
2023-03-27T17:40:24.902Z,1.20
2023-03-27T17:42:51.332Z,1.20
2023-03-27T17:45:17.868Z,1.20
2023-03-27T17:47:44.305Z,1.30
2023-03-27T17:50:10.847Z,1.30
2023-03-27T17:52:37.277Z,1.20
2023-03-27T17:55:03.930Z,1.20
2023-03-27T17:57:30.888Z,1.20
2023-03-27T17:59:57.519Z,1.20
2023-03-27T18:02:23.997Z,1.20
2023-03-27T18:04:52.310Z,1.30
2023-03-27T18:07:20.277Z,1.20
2023-03-27T18:09:46.765Z,1.20
2023-03-27T18:12:14.022Z,1.20
2023-03-27T18:14:41.553Z,1.30
2023-03-27T18:17:07.987Z,1.30
2023-03-27T18:19:34.658Z,1.20
2023-03-27T18:22:01.750Z,1.20
2023-03-27T18:24:28.423Z,1.20
2023-03-27T18:26:55.404Z,1.30
2023-03-27T18:29:24.092Z,1.20
2023-03-27T18:31:50.736Z,1.20
2023-03-27T18:34:17.264Z,1.20
2023-03-27T18:36:50.522Z,1.43
2023-03-27T18:39:20.894Z,1.30
2023-03-27T18:41:47.412Z,1.30
2023-03-27T18:44:13.961Z,1.20
2023-03-27T18:46:40.729Z,1.30
2023-03-27T18:49:17.528Z,1.20
2023-03-27T18:51:50.441Z,1.30
2023-03-27T18:54:16.868Z,1.30
2023-03-27T18:56:43.385Z,1.30
2023-03-27T18:59:11.022Z,1.20
2023-03-27T19:01:37.659Z,1.20
2023-03-27T19:04:04.788Z,1.30
2023-03-27T19:06:36.136Z,1.30
2023-03-27T19:09:02.682Z,1.30
2023-03-27T19:11:29.113Z,1.30
2023-03-27T19:13:56.065Z,1.33
2023-03-27T19:16:22.611Z,1.30
2023-03-27T19:18:49.073Z,1.30
2023-03-27T19:21:15.679Z,1.20
2023-03-27T19:23:42.168Z,1.30
2023-03-27T19:26:10.997Z,1.20
2023-03-27T19:28:37.433Z,1.30
2023-03-27T19:31:05.928Z,1.30
2023-03-27T19:33:32.448Z,1.37
2023-03-27T19:35:58.995Z,1.30
2023-03-27T19:38:25.479Z,1.30
2023-03-27T19:40:51.935Z,1.30
2023-03-27T19:43:18.800Z,1.30
2023-03-27T19:46:08.030Z,1.23
2023-03-27T19:48:41.244Z,1.33
2023-03-27T19:51:07.695Z,1.30
2023-03-27T19:53:34.119Z,1.30
2023-03-27T19:56:00.910Z,1.30
2023-03-27T19:58:29.008Z,1.30
2023-03-27T20:00:55.657Z,1.40
2023-03-27T20:03:24.203Z,1.30
2023-03-27T20:05:52.247Z,1.40
2023-03-27T20:08:20.514Z,1.30
2023-03-27T20:14:27.328Z,1.40
2023-03-27T20:17:00.265Z,1.30
2023-03-27T20:19:50.070Z,1.30
2023-03-27T20:22:20.837Z,1.40
2023-03-27T20:24:48.150Z,1.40
2023-03-27T20:27:15.563Z,1.40
2023-03-27T20:29:45.982Z,1.30
2023-03-27T20:32:13.845Z,1.30
2023-03-27T20:34:49.097Z,1.30
2023-03-27T20:37:18.752Z,1.37
2023-03-27T20:39:46.869Z,1.40
2023-03-27T20:42:15.454Z,1.30
2023-03-27T20:44:46.738Z,1.30
2023-03-27T20:47:14.986Z,1.40
2023-03-27T20:49:45.130Z,1.40
2023-03-27T20:52:25.464Z,1.40
2023-03-27T20:54:51.880Z,1.30
2023-03-27T20:57:18.383Z,1.30
2023-03-27T20:59:47.464Z,1.30
2023-03-27T21:02:17.250Z,1.40
2023-03-27T21:04:43.868Z,1.40
2023-03-27T21:07:10.297Z,1.40
2023-03-27T21:09:38.168Z,1.30
2023-03-27T21:12:04.884Z,1.40
2023-03-27T21:14:43.577Z,1.40
2023-03-27T21:17:09.973Z,1.40
2023-03-27T21:19:36.414Z,1.40
2023-03-27T21:22:02.844Z,1.30
2023-03-27T21:24:29.390Z,1.30
2023-03-27T21:26:55.869Z,1.40
2023-03-27T21:29:22.383Z,1.30
2023-03-27T21:31:48.852Z,1.30
2023-03-27T21:34:15.491Z,1.30
2023-03-27T21:36:41.998Z,1.30
2023-03-27T21:39:09.045Z,1.40
2023-03-27T21:41:35.910Z,1.30
2023-03-27T21:44:02.687Z,1.30
2023-03-27T21:46:29.128Z,1.40
2023-03-27T21:48:55.593Z,1.30
2023-03-27T21:51:22.015Z,1.30
2023-03-27T21:53:48.479Z,1.30
2023-03-27T21:56:14.921Z,1.30
2023-03-27T21:58:41.385Z,1.40
2023-03-27T22:01:08.221Z,1.30
2023-03-27T22:03:34.871Z,1.30
2023-03-27T22:06:11.851Z,1.30
2023-03-27T22:08:39.957Z,1.30
2023-03-27T22:11:07.071Z,1.40
2023-03-27T22:13:37.849Z,1.30
2023-03-27T22:16:13.451Z,1.30
2023-03-27T22:18:41.232Z,1.30
2023-03-27T22:21:14.926Z,1.30
2023-03-27T22:23:41.422Z,1.30
2023-03-27T22:26:08.373Z,1.30
2023-03-27T22:28:34.793Z,1.30
2023-03-27T22:31:01.414Z,1.40
2023-03-27T22:33:27.900Z,1.30
2023-03-27T22:35:54.412Z,1.40
2023-03-27T22:38:20.939Z,1.30
2023-03-27T22:40:47.401Z,1.30
2023-03-27T22:43:22.569Z,1.40
2023-03-27T22:45:50.818Z,1.30
2023-03-27T22:48:17.467Z,1.30
2023-03-27T22:50:44.351Z,1.40
2023-03-27T22:53:10.911Z,1.30
2023-03-27T22:55:37.715Z,1.30
2023-03-27T22:58:04.101Z,1.40
2023-03-27T23:00:30.613Z,1.30
2023-03-27T23:02:57.156Z,1.37
2023-03-27T23:05:23.613Z,1.50
2023-03-27T23:07:50.045Z,1.40
2023-03-27T23:10:28.341Z,1.40
2023-03-27T23:12:54.816Z,1.30
2023-03-27T23:15:30.397Z,1.40
2023-03-27T23:17:57.341Z,1.30
2023-03-27T23:20:23.864Z,1.40
2023-03-27T23:22:50.364Z,1.30
2023-03-27T23:25:16.881Z,1.40
2023-03-27T23:27:43.292Z,1.40
2023-03-27T23:30:10.401Z,1.40
2023-03-27T23:32:39.394Z,1.30
2023-03-27T23:35:08.357Z,1.30
2023-03-27T23:37:35.492Z,1.30
2023-03-27T23:40:02.587Z,1.50
2023-03-27T23:42:29.044Z,1.40
2023-03-27T23:44:55.543Z,1.23
2023-03-27T23:47:22.155Z,1.40
2023-03-27T23:49:48.902Z,1.40
2023-03-27T23:52:15.342Z,1.40
2023-03-27T23:54:41.837Z,1.40
2023-03-27T23:57:08.367Z,1.40
2023-03-27T23:59:37.952Z,1.40
